Shelton, Idaho
Current Conditions -  °F | °C
As of 3:53 PM on Tuesday 25 Nov 2014 (Local Time) from KIDA Reporting Station
Broken Clouds Broken Clouds  
Wind Chill: 37°   Ceiling: 2000
Heat Index: 45°   Visibility: 10mi
Dew Point: 38°   Wind: 21mph
Humidity: 76%   Direction: 210°SSW
Pressure: 30.08"   Gusts: 28mph
Location:  43.498°N, 111.73°W
Report Text: KIDA 252253Z 21018G24KT 10SM BKN020 BKN085 07/03 A3008 RMK AO2 PK WND 22026/2241 SLP191 T00720033
Loading
Personal Weather Stations






























Interactive Weather Map New forecast layout! Learn more

10-Day Weather Forecast

Advertisements
Track Severe Weather on mobile